createdAt,value
2022-09-20T03:58:13.403Z,87.04
2022-09-20T04:02:02.192Z,87.07
2022-09-20T04:05:38.057Z,86.96
2022-09-20T04:09:26.807Z,87.09
2022-09-20T04:13:09.175Z,87.18
2022-09-20T04:16:44.135Z,87.12
2022-09-20T04:20:24.019Z,87.19
2022-09-20T04:23:52.274Z,87.34
2022-09-20T04:27:25.933Z,87.41
2022-09-20T04:30:56.739Z,87.57
2022-09-20T04:34:49.520Z,87.62
2022-09-20T04:38:21.098Z,87.71
2022-09-20T04:42:16.280Z,87.65
2022-09-20T04:46:09.558Z,87.55
2022-09-20T04:50:20.478Z,87.71
2022-09-20T04:54:13.297Z,87.93
2022-09-20T04:58:11.145Z,87.88
2022-09-20T05:02:09.686Z,87.79
2022-09-20T05:06:04.868Z,87.96
2022-09-20T05:09:53.689Z,88.11
2022-09-20T05:13:33.421Z,88.29
2022-09-20T05:17:15.805Z,88.39
2022-09-20T05:20:59.556Z,88.78
2022-09-20T05:24:52.690Z,89.17
2022-09-20T05:28:28.414Z,89.41
2022-09-20T05:32:03.062Z,89.44
2022-09-20T05:35:38.337Z,89.21
2022-09-20T05:39:18.630Z,88.93
2022-09-20T05:42:52.402Z,88.71
2022-09-20T05:46:34.249Z,88.82
2022-09-20T05:50:17.183Z,88.62
2022-09-20T05:54:20.913Z,88.79
2022-09-20T05:58:04.176Z,88.99
2022-09-20T06:01:35.458Z,88.99
2022-09-20T06:05:10.914Z,88.88
2022-09-20T06:08:58.864Z,88.92
2022-09-20T06:12:45.414Z,88.90
2022-09-20T06:16:19.599Z,88.75
2022-09-20T06:19:52.951Z,88.83
2022-09-20T06:23:21.417Z,89.03
2022-09-20T06:26:49.634Z,89.10
2022-09-20T06:30:20.933Z,89.19
2022-09-20T06:33:53.724Z,89.16
2022-09-20T06:37:53.417Z,89.23
2022-09-20T06:41:32.260Z,88.73
2022-09-20T06:44:59.394Z,88.75
2022-09-20T06:48:26.229Z,88.56
2022-09-20T06:51:53.043Z,88.43
2022-09-20T06:55:29.372Z,88.13
2022-09-20T06:58:56.419Z,88.14
2022-09-20T07:02:23.572Z,88.12
2022-09-20T07:05:50.914Z,88.24
2022-09-20T07:09:17.840Z,88.24
2022-09-20T07:12:46.337Z,87.96
2022-09-20T07:16:15.099Z,87.90
2022-09-20T07:19:41.713Z,87.81
2022-09-20T07:23:08.325Z,87.23
2022-09-20T07:26:35.241Z,86.96
2022-09-20T07:30:02.578Z,86.87
2022-09-20T07:33:29.310Z,87.00
2022-09-20T07:36:57.475Z,86.93
2022-09-20T07:40:24.312Z,86.66
2022-09-20T07:43:52.652Z,86.33
2022-09-20T07:47:19.902Z,86.07
2022-09-20T07:50:53.495Z,85.78
2022-09-20T07:54:21.185Z,86.12
2022-09-20T07:57:47.847Z,85.66
2022-09-20T08:01:15.434Z,85.32
2022-09-20T08:04:42.032Z,85.33
2022-09-20T08:08:09.585Z,85.28
2022-09-20T08:11:39.782Z,85.30
2022-09-20T08:15:11.732Z,84.88
2022-09-20T08:18:39.076Z,83.81
2022-09-20T08:22:06.002Z,83.42
2022-09-20T08:25:32.843Z,82.93
2022-09-20T08:29:01.240Z,82.75
2022-09-20T08:32:28.047Z,82.38
2022-09-20T08:35:57.659Z,82.27
2022-09-20T08:43:14.547Z,81.97
2022-09-20T08:46:43.617Z,81.39
2022-09-20T08:50:18.776Z,80.82
2022-09-20T08:53:50.242Z,80.98
2022-09-20T08:57:18.631Z,80.26
2022-09-20T09:00:47.917Z,79.26
2022-09-20T09:04:18.927Z,78.49
2022-09-20T09:07:45.738Z,78.56
2022-09-20T09:11:16.906Z,77.90
2022-09-20T09:14:51.665Z,77.29
2022-09-20T09:18:18.289Z,76.73
2022-09-20T09:21:45.651Z,75.61
2022-09-20T09:25:32.261Z,75.82
2022-09-20T09:29:21.288Z,75.32
2022-09-20T09:32:48.496Z,73.74
2022-09-20T09:36:18.728Z,73.96
2022-09-20T09:39:45.389Z,74.90
2022-09-20T09:43:27.000Z,75.16
2022-09-20T09:46:55.508Z,75.08
2022-09-20T09:50:27.708Z,74.54
2022-09-20T09:53:55.271Z,73.90
2022-09-20T09:57:45.813Z,73.78
2022-09-20T10:01:32.528Z,72.63
2022-09-20T10:05:06.795Z,72.12
2022-09-20T10:08:40.914Z,71.82
2022-09-20T10:12:28.505Z,71.56
2022-09-20T10:16:07.408Z,71.19
2022-09-20T10:19:50.833Z,70.88
2022-09-20T10:23:58.490Z,69.15
2022-09-20T10:27:41.916Z,69.11
2022-09-20T10:31:16.041Z,69.27
2022-09-20T10:34:59.571Z,68.51
2022-09-20T10:38:31.530Z,67.72
2022-09-20T10:42:23.918Z,66.97
2022-09-20T10:46:30.330Z,67.04
2022-09-20T10:49:57.312Z,65.88
2022-09-20T10:53:39.579Z,65.36
2022-09-20T10:57:19.968Z,65.24
2022-09-20T11:00:53.767Z,64.77
2022-09-20T11:04:48.173Z,64.61
2022-09-20T11:08:18.937Z,64.16
2022-09-20T11:11:49.141Z,59.91
2022-09-20T11:15:22.399Z,60.34
2022-09-20T11:18:56.136Z,60.41
2022-09-20T11:22:28.257Z,61.93
2022-09-20T11:25:57.944Z,62.99
2022-09-20T11:29:32.804Z,63.71
2022-09-20T11:33:07.802Z,64.19
2022-09-20T11:36:41.250Z,64.94
2022-09-20T11:40:24.618Z,65.11
2022-09-20T11:43:52.108Z,64.37
2022-09-20T11:47:50.032Z,64.02
2022-09-20T11:51:31.491Z,63.49
2022-09-20T11:55:21.230Z,63.87
2022-09-20T11:58:49.444Z,62.98
2022-09-20T12:02:23.231Z,61.28
2022-09-20T12:05:57.427Z,60.79
2022-09-20T12:09:32.371Z,60.40
2022-09-20T12:13:01.480Z,59.99
2022-09-20T12:16:41.927Z,59.55
2022-09-20T12:20:39.428Z,59.81
2022-09-20T12:24:20.483Z,59.55
2022-09-20T12:28:00.314Z,56.93
2022-09-20T12:31:50.411Z,53.62
2022-09-20T12:35:55.089Z,55.26
2022-09-20T12:39:29.760Z,54.84
2022-09-20T12:42:59.210Z,54.31
2022-09-20T12:46:32.829Z,53.67
2022-09-20T12:50:19.379Z,53.60
2022-09-20T12:53:58.850Z,52.64
2022-09-20T12:57:33.118Z,53.90
2022-09-20T13:01:34.882Z,53.64
2022-09-20T13:05:02.723Z,53.27
2022-09-20T13:08:33.021Z,51.00
2022-09-20T13:12:03.968Z,52.33
2022-09-20T13:15:33.287Z,53.27
2022-09-20T13:19:05.893Z,52.83
2022-09-20T13:22:43.514Z,53.26
2022-09-20T13:26:13.140Z,54.96
2022-09-20T13:29:43.343Z,56.03
2022-09-20T13:33:26.960Z,57.01
2022-09-20T13:36:58.434Z,57.84
2022-09-20T13:40:33.439Z,58.33
2022-09-20T13:44:01.213Z,58.86
2022-09-20T13:47:31.353Z,59.33
2022-09-20T13:50:59.019Z,59.50
2022-09-20T13:54:31.318Z,59.75
2022-09-20T13:58:01.228Z,60.31
2022-09-20T14:01:31.997Z,61.20
2022-09-20T14:05:01.394Z,61.59
2022-09-20T14:08:32.699Z,62.13
2022-09-20T14:12:01.200Z,62.85
2022-09-20T14:15:32.224Z,63.33
2022-09-20T14:18:59.817Z,64.07
2022-09-20T14:22:28.798Z,64.41
2022-09-20T14:26:25.813Z,63.49
2022-09-20T14:29:54.328Z,62.99
2022-09-20T14:33:22.636Z,63.37
2022-09-20T14:36:51.131Z,63.55
2022-09-20T14:40:25.657Z,63.53
2022-09-20T14:43:58.139Z,63.33
2022-09-20T14:47:38.542Z,62.39
2022-09-20T14:51:25.558Z,61.95
2022-09-20T14:55:03.491Z,61.09
2022-09-20T14:58:31.361Z,59.94
2022-09-20T15:02:15.741Z,58.48
2022-09-20T15:05:48.848Z,58.45
2022-09-20T15:09:16.806Z,59.13
2022-09-20T15:12:43.936Z,58.84
2022-09-20T15:16:11.721Z,58.98
2022-09-20T15:19:38.450Z,59.58
2022-09-20T15:23:05.788Z,59.84
2022-09-20T15:26:32.997Z,59.50
2022-09-20T15:29:59.737Z,59.78
2022-09-20T15:33:26.891Z,59.45
2022-09-20T15:36:54.687Z,59.30
2022-09-20T15:40:22.191Z,59.57
2022-09-20T15:43:50.489Z,59.70
2022-09-20T15:47:17.412Z,59.22
2022-09-20T15:50:44.364Z,59.29
2022-09-20T15:54:15.888Z,58.66
2022-09-20T15:57:42.667Z,58.97
2022-09-20T16:01:11.202Z,58.57
2022-09-20T16:04:38.024Z,58.15
2022-09-20T16:08:05.572Z,58.19
2022-09-20T16:11:32.729Z,58.54
2022-09-20T16:15:00.585Z,58.67
2022-09-20T16:18:45.628Z,58.98
2022-09-20T16:22:13.351Z,58.98
2022-09-20T16:25:40.467Z,59.42
2022-09-20T16:29:08.307Z,59.52
2022-09-20T16:32:35.869Z,59.68
2022-09-20T16:36:03.028Z,59.84
2022-09-20T16:39:32.104Z,59.88
2022-09-20T16:43:00.355Z,59.95
2022-09-20T16:46:28.767Z,60.05
2022-09-20T16:49:57.458Z,60.22
2022-09-20T16:53:25.051Z,60.24
2022-09-20T16:56:52.812Z,60.46
2022-09-20T17:00:22.084Z,60.37
2022-09-20T17:03:49.889Z,60.66
2022-09-20T17:07:17.243Z,60.72
2022-09-20T17:10:46.057Z,61.02
2022-09-20T17:14:14.108Z,61.25
2022-09-20T17:17:43.316Z,61.30
2022-09-20T17:21:14.079Z,61.65
2022-09-20T17:24:41.832Z,61.95
2022-09-20T17:28:09.235Z,62.20
2022-09-20T17:31:39.590Z,62.53
2022-09-20T17:35:07.945Z,62.90
2022-09-20T17:38:36.334Z,63.10
2022-09-20T17:42:03.192Z,63.59
2022-09-20T17:45:29.988Z,63.91
2022-09-20T17:48:58.151Z,64.35
2022-09-20T17:52:24.814Z,64.53
2022-09-20T17:55:57.269Z,64.70
2022-09-20T17:59:24.588Z,64.98
2022-09-20T18:02:51.137Z,65.13
2022-09-20T18:06:19.517Z,65.40
2022-09-20T18:09:46.363Z,65.57
2022-09-20T18:13:15.028Z,65.63
2022-09-20T18:16:44.421Z,65.61
2022-09-20T18:20:12.290Z,65.83
2022-09-20T18:23:39.218Z,65.86
2022-09-20T18:27:06.557Z,65.95
2022-09-20T18:30:34.361Z,66.12
2022-09-20T18:34:03.342Z,66.22
2022-09-20T18:37:31.569Z,66.37
2022-09-20T18:41:00.982Z,66.50
2022-09-20T18:44:32.050Z,66.64
2022-09-20T18:48:00.496Z,66.75
2022-09-20T18:51:29.065Z,67.05
2022-09-20T18:54:57.235Z,67.24
2022-09-20T18:58:25.562Z,67.41
2022-09-20T19:02:14.468Z,67.57
2022-09-20T19:05:46.709Z,67.75
2022-09-20T19:09:25.090Z,68.03
2022-09-20T19:12:58.765Z,68.18
2022-09-20T19:16:31.448Z,68.46
2022-09-20T19:20:03.888Z,68.83
2022-09-20T19:23:46.502Z,68.83
2022-09-20T19:27:15.532Z,69.00
2022-09-20T19:30:43.887Z,69.21
2022-09-20T19:34:19.509Z,69.39
2022-09-20T19:38:04.235Z,69.61
2022-09-20T19:41:43.208Z,69.68
2022-09-20T19:45:19.799Z,70.06
2022-09-20T19:48:55.205Z,70.25
2022-09-20T19:52:22.947Z,70.54
2022-09-20T19:55:54.557Z,70.58
2022-09-20T19:59:23.088Z,70.62
2022-09-20T20:02:51.110Z,71.07
2022-09-20T20:06:26.610Z,71.02
2022-09-20T20:10:01.511Z,71.19
2022-09-20T20:13:53.378Z,71.48
2022-09-20T20:17:33.741Z,71.61
2022-09-20T20:21:01.732Z,71.77
2022-09-20T20:24:35.780Z,71.85
2022-09-20T20:28:02.935Z,72.01
2022-09-20T20:31:30.464Z,72.32
2022-09-20T20:34:57.667Z,72.17
2022-09-20T20:38:26.021Z,72.48
2022-09-20T20:41:52.933Z,72.71
2022-09-20T20:45:21.442Z,72.93
2022-09-20T20:48:48.495Z,73.01
2022-09-20T20:52:15.458Z,73.41
2022-09-20T20:55:42.536Z,73.27
2022-09-20T20:59:09.481Z,73.59
2022-09-20T21:02:36.077Z,73.87
2022-09-20T21:06:04.466Z,74.11
2022-09-20T21:09:32.124Z,74.09
2022-09-20T21:13:00.124Z,74.26
2022-09-20T21:16:29.965Z,74.37
2022-09-20T21:19:55.314Z,74.62
2022-09-20T21:23:22.235Z,74.70
2022-09-20T21:26:49.146Z,74.99
2022-09-20T21:30:16.801Z,75.15
2022-09-20T21:33:45.186Z,74.96
2022-09-20T21:37:12.174Z,75.15
2022-09-20T21:40:39.659Z,75.45
2022-09-20T21:44:09.928Z,75.42
2022-09-20T21:47:36.603Z,75.54
2022-09-20T21:51:09.213Z,75.30
2022-09-20T21:54:35.815Z,75.76
2022-09-20T21:58:02.825Z,75.53
2022-09-20T22:01:33.681Z,75.93
2022-09-20T22:05:01.747Z,76.02
2022-09-20T22:08:29.202Z,76.15
2022-09-20T22:11:56.268Z,76.23
2022-09-20T22:15:23.327Z,76.45
2022-09-20T22:18:50.344Z,76.57
2022-09-20T22:22:17.338Z,76.52
2022-09-20T22:25:44.056Z,76.91
2022-09-20T22:29:11.468Z,76.92
2022-09-20T22:32:38.138Z,77.26
2022-09-20T22:36:07.863Z,77.41
2022-09-20T22:39:35.239Z,77.53
2022-09-20T22:43:02.015Z,77.70
2022-09-20T22:46:30.413Z,77.77
2022-09-20T22:49:57.167Z,77.72
